createdAt,value
2019-01-31T00:01:46.587Z,16.85
2019-01-31T00:04:56.079Z,18.67
2019-01-31T00:07:55.508Z,18.75
2019-01-31T00:11:05.369Z,18.05
2019-01-31T00:14:08.372Z,19.57
2019-01-31T00:17:08.549Z,18.20
2019-01-31T00:19:57.744Z,17.60
2019-01-31T00:22:59.558Z,19.85
2019-01-31T00:26:07.834Z,19.07
2019-01-31T00:28:58.210Z,19.10
2019-01-31T00:31:56.594Z,18.35
2019-01-31T00:35:08.412Z,18.70
2019-01-31T00:38:03.751Z,18.80
2019-01-31T00:41:23.211Z,19.25
2019-01-31T00:44:05.597Z,20.08
2019-01-31T00:46:47.960Z,19.55
2019-01-31T00:49:43.008Z,18.70
2019-01-31T00:53:14.834Z,18.10
2019-01-31T00:55:55.730Z,19.35
2019-01-31T00:59:02.039Z,19.67
2019-01-31T01:02:17.101Z,19.00
2019-01-31T01:05:12.728Z,19.42
2019-01-31T01:08:05.042Z,18.77
2019-01-31T01:11:46.022Z,18.32
2019-01-31T01:14:56.496Z,17.77
2019-01-31T01:17:53.856Z,19.35
2019-01-31T01:20:43.407Z,18.42
2019-01-31T01:23:50.775Z,16.77
2019-01-31T01:26:41.004Z,18.62
2019-01-31T01:30:03.561Z,18.90
2019-01-31T01:32:51.781Z,18.90
2019-01-31T01:35:55.458Z,18.00
2019-01-31T01:38:47.137Z,17.07
2019-01-31T01:41:56.180Z,17.20
2019-01-31T01:45:12.693Z,17.90
2019-01-31T01:48:34.847Z,18.45
2019-01-31T01:51:19.873Z,17.30
2019-01-31T01:54:16.703Z,17.15
2019-01-31T01:57:24.049Z,19.48
2019-01-31T02:00:21.917Z,18.23
2019-01-31T02:03:29.526Z,18.55
2019-01-31T02:06:24.386Z,17.30
2019-01-31T02:09:44.082Z,18.48
2019-01-31T02:12:55.408Z,18.23
2019-01-31T02:16:12.286Z,18.70
2019-01-31T02:18:54.178Z,17.65
2019-01-31T02:22:19.492Z,18.92
2019-01-31T02:25:01.492Z,18.48
2019-01-31T02:27:57.333Z,18.73
2019-01-31T02:30:52.211Z,17.25
2019-01-31T02:33:51.476Z,18.48
2019-01-31T02:36:52.744Z,17.17
2019-01-31T02:40:06.252Z,17.87
2019-01-31T02:43:03.764Z,17.85
2019-01-31T02:46:17.194Z,18.12
2019-01-31T02:49:05.478Z,18.02
2019-01-31T02:52:04.445Z,18.15
2019-01-31T02:54:57.137Z,18.50
2019-01-31T02:57:59.890Z,17.77
2019-01-31T03:01:03.486Z,18.57
2019-01-31T03:04:25.959Z,19.17
2019-01-31T03:07:47.196Z,18.17
2019-01-31T03:10:32.745Z,19.17
2019-01-31T03:13:43.380Z,19.65
2019-01-31T03:16:40.346Z,17.85
2019-01-31T03:19:59.975Z,18.98
2019-01-31T03:22:45.189Z,18.73
2019-01-31T03:25:38.738Z,19.12
2019-01-31T03:28:38.396Z,20.50
2019-01-31T03:32:00.689Z,20.62
2019-01-31T03:35:09.549Z,19.07
2019-01-31T03:38:38.434Z,19.10
2019-01-31T03:41:53.806Z,19.55
2019-01-31T03:44:35.209Z,19.27
2019-01-31T03:47:42.835Z,19.70
2019-01-31T03:50:26.593Z,21.15
2019-01-31T03:53:40.667Z,20.10
2019-01-31T03:56:42.038Z,20.20
2019-01-31T03:59:24.445Z,21.50
2019-01-31T04:02:34.155Z,20.88
2019-01-31T04:05:46.209Z,19.15
2019-01-31T04:08:15.695Z,19.40
2019-01-31T04:10:45.144Z,19.77
2019-01-31T04:13:14.895Z,17.75
2019-01-31T04:15:44.350Z,20.23
2019-01-31T04:18:14.509Z,20.30
2019-01-31T04:20:43.977Z,20.50
2019-01-31T04:23:13.419Z,20.37
2019-01-31T04:25:42.905Z,20.00
2019-01-31T04:28:12.513Z,20.05
2019-01-31T04:30:41.953Z,18.75
2019-01-31T04:33:11.403Z,19.77
2019-01-31T04:35:40.907Z,20.55
2019-01-31T04:38:10.365Z,20.23
2019-01-31T04:40:40.769Z,19.85
2019-01-31T04:43:10.212Z,20.57
2019-01-31T04:45:39.657Z,20.90
2019-01-31T04:48:09.119Z,20.35
2019-01-31T04:50:38.625Z,21.17
2019-01-31T04:53:08.080Z,20.92
2019-01-31T04:55:37.532Z,20.77
2019-01-31T04:58:07.062Z,19.07
2019-01-31T05:00:36.525Z,21.23
2019-01-31T05:03:05.982Z,19.70
2019-01-31T05:05:35.432Z,20.45
2019-01-31T05:08:04.970Z,19.23
2019-01-31T05:10:42.661Z,20.40
2019-01-31T05:13:05.621Z,20.23
2019-01-31T05:15:35.133Z,20.27
2019-01-31T05:18:04.630Z,20.57
2019-01-31T05:20:34.108Z,20.00
2019-01-31T05:23:03.569Z,20.68
2019-01-31T05:25:33.033Z,21.95
2019-01-31T05:28:02.486Z,20.80
2019-01-31T05:30:32.033Z,20.60
2019-01-31T05:33:01.506Z,22.60
2019-01-31T05:35:30.950Z,20.08
2019-01-31T05:38:00.770Z,22.37
2019-01-31T05:40:30.254Z,21.95
2019-01-31T05:42:59.747Z,21.60
2019-01-31T05:45:29.212Z,20.57
2019-01-31T05:47:58.664Z,23.07
2019-01-31T05:50:28.113Z,24.50
2019-01-31T05:52:57.561Z,23.10
2019-01-31T05:55:27.099Z,23.98
2019-01-31T05:57:56.546Z,24.60
2019-01-31T06:00:29.425Z,22.67
2019-01-31T06:02:58.876Z,24.75
2019-01-31T06:05:28.330Z,24.05
2019-01-31T06:07:57.842Z,22.22
2019-01-31T06:10:27.299Z,35.85
2019-01-31T06:12:56.753Z,45.90
2019-01-31T06:15:26.523Z,39.88
2019-01-31T06:17:55.990Z,34.55
2019-01-31T06:20:26.154Z,29.90
2019-01-31T06:22:55.961Z,29.40
2019-01-31T06:25:25.417Z,26.57
2019-01-31T06:27:54.862Z,26.90
2019-01-31T06:30:24.404Z,26.52
2019-01-31T06:32:53.933Z,29.45
2019-01-31T06:35:23.687Z,29.48
2019-01-31T06:37:53.185Z,27.50
2019-01-31T06:40:22.632Z,28.90
2019-01-31T06:42:52.090Z,25.97
2019-01-31T06:45:22.296Z,24.82
2019-01-31T06:47:51.697Z,24.85
2019-01-31T06:50:21.185Z,23.92
2019-01-31T06:52:50.632Z,23.12
2019-01-31T06:55:20.552Z,25.17
2019-01-31T06:57:50.380Z,22.90
2019-01-31T07:00:21.539Z,24.52
2019-01-31T07:02:51.294Z,25.32
2019-01-31T07:05:20.750Z,22.75
2019-01-31T07:07:50.534Z,25.50
2019-01-31T07:10:25.663Z,28.85
2019-01-31T07:12:55.182Z,26.68
2019-01-31T07:15:24.795Z,26.40
2019-01-31T07:17:54.435Z,26.15
2019-01-31T07:20:24.304Z,26.93
2019-01-31T07:22:53.758Z,27.42
2019-01-31T07:25:24.949Z,26.85
2019-01-31T07:27:54.392Z,25.68
2019-01-31T07:30:26.687Z,26.33
2019-01-31T07:32:55.094Z,23.57
2019-01-31T07:35:24.580Z,24.85
2019-01-31T07:37:54.019Z,26.40
2019-01-31T07:40:23.508Z,25.80
2019-01-31T07:42:52.980Z,25.10
2019-01-31T07:45:27.321Z,25.45
2019-01-31T07:47:56.813Z,24.77
2019-01-31T07:50:26.356Z,23.70
2019-01-31T07:52:56.330Z,26.05
2019-01-31T07:55:25.762Z,24.80
2019-01-31T07:57:55.222Z,26.00
2019-01-31T08:00:24.686Z,28.60
2019-01-31T08:02:54.345Z,27.60
2019-01-31T08:05:23.810Z,28.75
2019-01-31T08:07:54.517Z,30.90
2019-01-31T08:10:43.183Z,31.05
2019-01-31T08:13:12.931Z,31.17
2019-01-31T08:15:42.721Z,31.50
2019-01-31T08:18:12.246Z,28.70
2019-01-31T08:20:41.683Z,29.45
2019-01-31T08:23:11.167Z,28.12
2019-01-31T08:25:40.936Z,31.00
2019-01-31T08:28:10.483Z,31.37
2019-01-31T08:30:42.090Z,30.08
2019-01-31T08:33:11.535Z,29.72
2019-01-31T08:35:41.102Z,28.25
2019-01-31T08:38:10.523Z,28.38
2019-01-31T08:40:39.986Z,30.68
2019-01-31T08:43:09.434Z,28.40
2019-01-31T08:45:38.898Z,31.10
2019-01-31T08:48:08.360Z,27.17
2019-01-31T08:50:38.192Z,26.95
2019-01-31T08:53:07.682Z,25.85
2019-01-31T08:55:37.122Z,25.57
2019-01-31T08:58:06.566Z,25.12
2019-01-31T09:00:36.417Z,23.32
2019-01-31T09:03:05.861Z,24.77
2019-01-31T09:05:35.387Z,24.90
2019-01-31T09:08:05.063Z,26.85
2019-01-31T09:10:39.618Z,27.48
2019-01-31T09:13:11.256Z,24.75
2019-01-31T09:15:41.078Z,25.30
2019-01-31T09:18:10.724Z,23.70
2019-01-31T09:20:44.359Z,26.27
2019-01-31T09:24:00.604Z,25.85
2019-01-31T09:27:14.173Z,24.77
2019-01-31T09:30:30.758Z,25.43
2019-01-31T09:33:42.546Z,24.37
2019-01-31T09:37:03.092Z,26.93
2019-01-31T09:40:10.724Z,25.43
2019-01-31T09:43:12.154Z,34.55
2019-01-31T09:46:18.854Z,27.07
2019-01-31T09:49:34.947Z,23.30
2019-01-31T09:52:31.991Z,23.55
2019-01-31T09:55:26.818Z,22.95
2019-01-31T09:58:20.421Z,26.42
2019-01-31T10:01:30.988Z,25.23
2019-01-31T10:04:21.529Z,22.98
2019-01-31T10:07:23.182Z,25.85
2019-01-31T10:10:07.836Z,24.70
2019-01-31T10:13:05.475Z,23.32
2019-01-31T10:16:14.460Z,24.43
2019-01-31T10:19:19.910Z,25.62
2019-01-31T10:22:25.575Z,24.23
2019-01-31T10:25:51.249Z,23.87
2019-01-31T10:29:26.203Z,24.90
2019-01-31T10:32:15.815Z,24.92
2019-01-31T10:35:05.080Z,22.40
2019-01-31T10:38:11.943Z,23.80
2019-01-31T10:41:13.021Z,23.42
2019-01-31T10:44:18.227Z,23.30
2019-01-31T10:47:10.717Z,22.52
2019-01-31T10:49:56.535Z,24.47
2019-01-31T10:53:00.809Z,22.67
2019-01-31T10:56:17.227Z,20.82
2019-01-31T10:59:21.958Z,22.17
2019-01-31T11:02:28.140Z,19.65
2019-01-31T11:05:25.064Z,22.10
2019-01-31T11:08:44.515Z,19.95
2019-01-31T11:11:27.437Z,21.57
2019-01-31T11:14:41.133Z,20.72
2019-01-31T11:17:46.669Z,19.00
2019-01-31T11:21:04.104Z,19.27
2019-01-31T11:23:56.593Z,20.25
2019-01-31T11:26:57.107Z,21.48
2019-01-31T11:30:04.027Z,20.15
2019-01-31T11:33:03.348Z,18.87
2019-01-31T11:36:28.178Z,18.60
2019-01-31T11:39:22.263Z,19.57
2019-01-31T11:42:16.334Z,18.65
2019-01-31T11:45:26.833Z,18.23
2019-01-31T11:48:37.724Z,17.30
2019-01-31T11:51:50.007Z,17.65
2019-01-31T11:55:04.169Z,20.30
2019-01-31T11:58:12.840Z,19.05
2019-01-31T12:00:42.447Z,19.30
2019-01-31T12:03:12.219Z,17.45
2019-01-31T12:05:42.210Z,17.73
2019-01-31T12:08:11.670Z,17.75
2019-01-31T12:10:41.180Z,18.40
2019-01-31T12:13:10.617Z,16.23
2019-01-31T12:15:40.104Z,14.90
2019-01-31T12:18:09.570Z,15.80
2019-01-31T12:20:39.030Z,16.50
2019-01-31T12:23:08.501Z,15.85
2019-01-31T12:25:37.966Z,16.87
2019-01-31T12:28:07.421Z,15.88
2019-01-31T12:30:36.916Z,14.30
2019-01-31T12:33:06.364Z,12.68
2019-01-31T12:35:35.816Z,12.95
2019-01-31T12:38:05.574Z,13.10
2019-01-31T12:40:35.260Z,14.05
2019-01-31T12:43:04.637Z,15.00
2019-01-31T12:45:34.089Z,13.05
2019-01-31T12:48:03.932Z,12.60
2019-01-31T12:50:33.437Z,14.55
2019-01-31T12:53:03.208Z,13.15
2019-01-31T12:55:32.638Z,14.03
2019-01-31T12:58:02.095Z,14.93
2019-01-31T13:00:31.869Z,14.10
2019-01-31T13:03:01.472Z,14.75
2019-01-31T13:05:30.940Z,14.40
2019-01-31T13:08:00.379Z,13.43
2019-01-31T13:10:29.833Z,14.15
2019-01-31T13:12:59.286Z,13.78
2019-01-31T13:15:29.493Z,14.85
2019-01-31T13:18:01.172Z,14.73
2019-01-31T13:20:30.631Z,15.50
2019-01-31T13:23:00.211Z,14.90
2019-01-31T13:25:29.978Z,15.23
2019-01-31T13:27:59.415Z,14.75
2019-01-31T13:30:30.861Z,15.80
2019-01-31T13:33:00.412Z,15.13
2019-01-31T13:35:29.911Z,14.63
2019-01-31T13:37:59.767Z,14.80
2019-01-31T13:40:29.203Z,15.35
2019-01-31T13:42:59.094Z,15.65
2019-01-31T13:45:30.966Z,15.55
2019-01-31T13:48:02.910Z,15.80
2019-01-31T13:50:32.593Z,15.10
2019-01-31T13:53:02.370Z,15.55
2019-01-31T13:55:35.134Z,15.88
2019-01-31T13:58:05.126Z,15.80
2019-01-31T14:00:34.650Z,16.15
2019-01-31T14:03:10.291Z,16.50
2019-01-31T14:05:40.203Z,16.90
2019-01-31T14:08:10.330Z,17.05
2019-01-31T14:10:40.143Z,16.23
2019-01-31T14:13:19.692Z,15.43
2019-01-31T14:15:49.203Z,15.78
2019-01-31T14:18:18.685Z,16.45
2019-01-31T14:20:48.205Z,16.20
2019-01-31T14:23:17.938Z,15.68
2019-01-31T14:25:47.500Z,16.62
2019-01-31T14:28:16.942Z,16.35
2019-01-31T14:30:46.474Z,15.40
2019-01-31T14:33:39.682Z,16.15
2019-01-31T14:36:09.697Z,15.68
2019-01-31T14:38:40.200Z,14.58
2019-01-31T14:41:09.725Z,16.62
2019-01-31T14:43:39.366Z,17.27
2019-01-31T14:46:08.822Z,15.30
2019-01-31T14:48:38.375Z,16.42
2019-01-31T14:51:22.104Z,15.60
2019-01-31T14:53:51.665Z,15.23
2019-01-31T14:56:24.234Z,16.82
2019-01-31T14:58:54.303Z,15.80
2019-01-31T15:01:23.857Z,16.35
2019-01-31T15:03:53.392Z,15.80
2019-01-31T15:06:23.038Z,15.88
2019-01-31T15:08:52.630Z,13.83
2019-01-31T15:11:22.142Z,14.87
2019-01-31T15:13:51.657Z,15.20
2019-01-31T15:16:21.283Z,15.78
2019-01-31T15:18:50.759Z,15.32
2019-01-31T15:21:20.661Z,15.05
2019-01-31T15:24:09.174Z,14.75
2019-01-31T15:26:39.035Z,15.08
2019-01-31T15:29:08.533Z,15.53
2019-01-31T15:31:37.985Z,15.50
2019-01-31T15:34:07.437Z,15.88
2019-01-31T15:36:37.243Z,16.17
2019-01-31T15:39:09.155Z,16.32
2019-01-31T15:41:38.685Z,18.55
2019-01-31T15:44:08.140Z,17.98
2019-01-31T15:46:39.697Z,17.30
2019-01-31T15:49:09.473Z,18.07
2019-01-31T15:51:38.984Z,18.15
2019-01-31T15:54:08.414Z,20.32
2019-01-31T15:56:38.208Z,18.60
2019-01-31T15:59:07.690Z,19.52
2019-01-31T16:01:37.201Z,17.70
2019-01-31T16:04:06.668Z,17.55
2019-01-31T16:06:36.118Z,19.02
2019-01-31T16:09:09.066Z,18.92
2019-01-31T16:11:38.811Z,17.40
2019-01-31T16:14:09.355Z,18.45
2019-01-31T16:16:39.157Z,18.00
2019-01-31T16:19:09.070Z,18.60
2019-01-31T16:21:38.546Z,21.25
2019-01-31T16:24:08.385Z,22.02
2019-01-31T16:26:37.874Z,20.30
2019-01-31T16:29:18.208Z,20.62
2019-01-31T16:31:47.825Z,22.45
2019-01-31T16:34:17.321Z,21.37
2019-01-31T16:36:47.355Z,21.23
2019-01-31T16:39:16.824Z,22.27
2019-01-31T16:41:46.459Z,23.10
2019-01-31T16:44:16.216Z,26.35
2019-01-31T16:46:46.161Z,22.95
2019-01-31T16:49:15.936Z,21.85
2019-01-31T16:51:45.643Z,22.60
2019-01-31T16:54:15.128Z,22.05
2019-01-31T16:56:45.116Z,23.07
2019-01-31T16:59:16.927Z,20.55
2019-01-31T17:01:46.356Z,21.02
2019-01-31T17:04:15.867Z,21.55
2019-01-31T17:06:45.380Z,22.17
2019-01-31T17:09:15.355Z,21.57
2019-01-31T17:11:44.835Z,21.82
2019-01-31T17:14:14.891Z,20.05
2019-01-31T17:16:44.372Z,20.65
2019-01-31T17:19:13.834Z,19.32
2019-01-31T17:21:43.668Z,19.55
2019-01-31T17:24:13.243Z,20.77
2019-01-31T17:26:42.701Z,20.52
2019-01-31T17:29:12.306Z,26.07
2019-01-31T17:31:42.397Z,28.07
2019-01-31T17:34:11.855Z,27.32
2019-01-31T17:36:41.653Z,25.35
2019-01-31T17:39:13.681Z,25.97
2019-01-31T17:41:43.432Z,24.52
2019-01-31T17:44:12.912Z,25.20
2019-01-31T17:46:42.824Z,23.12
2019-01-31T17:49:12.289Z,22.27
2019-01-31T17:51:42.750Z,23.00
2019-01-31T17:54:12.490Z,24.98
2019-01-31T17:56:41.978Z,24.75
2019-01-31T17:59:11.783Z,23.42
2019-01-31T18:01:41.632Z,24.87
2019-01-31T18:04:11.075Z,23.87
2019-01-31T18:06:41.346Z,24.32
2019-01-31T18:09:10.888Z,24.43
2019-01-31T18:11:40.779Z,25.50
2019-01-31T18:14:10.901Z,25.65
2019-01-31T18:16:40.667Z,25.05
2019-01-31T18:19:10.164Z,23.50
2019-01-31T18:21:39.664Z,25.43
2019-01-31T18:24:09.146Z,25.40
2019-01-31T18:26:38.626Z,24.75
2019-01-31T18:29:08.126Z,25.45
2019-01-31T18:31:37.662Z,25.25
2019-01-31T18:34:07.544Z,24.40
2019-01-31T18:36:36.990Z,24.30
2019-01-31T18:39:09.434Z,24.80
2019-01-31T18:41:38.942Z,22.80
2019-01-31T18:44:11.064Z,22.10
2019-01-31T18:46:40.237Z,21.42
2019-01-31T18:49:11.065Z,21.33
2019-01-31T18:51:40.595Z,20.30
2019-01-31T18:54:11.662Z,20.68
2019-01-31T18:56:41.127Z,22.02
2019-01-31T18:59:10.723Z,19.40
2019-01-31T19:01:40.358Z,19.90
2019-01-31T19:04:09.863Z,20.68
2019-01-31T19:06:39.757Z,20.25
2019-01-31T19:09:09.890Z,19.75
2019-01-31T19:11:40.139Z,20.15
2019-01-31T19:14:09.784Z,20.68
2019-01-31T19:16:39.690Z,20.70
2019-01-31T19:19:09.147Z,20.08
2019-01-31T19:21:38.616Z,20.45
2019-01-31T19:24:08.138Z,20.65
2019-01-31T19:26:37.710Z,21.42
2019-01-31T19:29:07.387Z,22.35
2019-01-31T19:31:40.218Z,21.95
2019-01-31T19:34:08.331Z,22.22
2019-01-31T19:36:38.449Z,21.37
2019-01-31T19:39:14.567Z,25.55
2019-01-31T19:41:44.106Z,22.40
2019-01-31T19:44:13.879Z,24.35
2019-01-31T19:46:43.383Z,22.00
2019-01-31T19:49:32.285Z,23.65
2019-01-31T19:52:02.090Z,22.80
2019-01-31T19:54:31.533Z,22.35
2019-01-31T19:57:01.085Z,24.60
2019-01-31T19:59:30.571Z,23.57
2019-01-31T20:02:00.328Z,22.87
2019-01-31T20:04:29.771Z,22.98
2019-01-31T20:06:59.577Z,23.45
2019-01-31T20:09:29.330Z,23.32
2019-01-31T20:11:58.780Z,21.10
2019-01-31T20:14:28.631Z,21.05
2019-01-31T20:16:58.170Z,20.35
2019-01-31T20:19:28.112Z,21.95
2019-01-31T20:21:57.547Z,22.30
2019-01-31T20:24:26.979Z,21.95
2019-01-31T20:26:56.438Z,21.45
2019-01-31T20:29:25.928Z,21.35
2019-01-31T20:31:55.365Z,20.88
2019-01-31T20:34:24.923Z,21.02
2019-01-31T20:36:54.608Z,19.67
2019-01-31T20:39:24.109Z,20.85
2019-01-31T20:41:54.643Z,21.75
2019-01-31T20:44:24.272Z,20.88
2019-01-31T20:46:54.132Z,23.87
2019-01-31T20:49:23.686Z,21.45
2019-01-31T20:51:53.457Z,23.20
2019-01-31T20:54:22.899Z,22.60
2019-01-31T20:56:52.454Z,25.75
2019-01-31T20:59:21.988Z,23.67
2019-01-31T21:01:51.396Z,22.55
2019-01-31T21:04:20.868Z,24.10
2019-01-31T21:06:50.332Z,23.25
2019-01-31T21:09:19.771Z,23.18
2019-01-31T21:11:49.353Z,25.40
2019-01-31T21:14:18.780Z,24.25
2019-01-31T21:16:51.816Z,24.15
2019-01-31T21:19:19.763Z,23.98
2019-01-31T21:21:49.526Z,23.67
2019-01-31T21:24:19.644Z,24.05
2019-01-31T21:26:49.090Z,26.00
2019-01-31T21:29:18.543Z,23.27
2019-01-31T21:31:49.003Z,24.25
2019-01-31T21:34:18.744Z,24.15
2019-01-31T21:36:48.212Z,25.70
2019-01-31T21:39:17.633Z,24.35
2019-01-31T21:41:47.145Z,26.10
2019-01-31T21:44:16.575Z,24.65
2019-01-31T21:46:46.033Z,23.52
2019-01-31T21:49:15.480Z,23.40
2019-01-31T21:51:44.904Z,24.35
2019-01-31T21:54:14.810Z,22.70
2019-01-31T21:56:54.565Z,25.80
2019-01-31T21:59:24.037Z,22.20
2019-01-31T22:01:53.843Z,25.05
2019-01-31T22:04:23.322Z,23.27
2019-01-31T22:06:52.775Z,22.65
2019-01-31T22:09:22.209Z,23.40
2019-01-31T22:11:51.650Z,22.62
2019-01-31T22:14:21.114Z,21.65
2019-01-31T22:16:50.570Z,22.87
2019-01-31T22:19:19.998Z,22.40
2019-01-31T22:21:49.439Z,20.85
2019-01-31T22:24:18.977Z,22.60
2019-01-31T22:26:48.414Z,21.57
2019-01-31T22:29:17.924Z,22.30
2019-01-31T22:31:47.363Z,21.15
2019-01-31T22:34:16.794Z,20.08
2019-01-31T22:36:46.644Z,20.88
2019-01-31T22:39:16.076Z,20.30
2019-01-31T22:41:45.495Z,22.70
2019-01-31T22:44:14.945Z,22.10
2019-01-31T22:46:44.361Z,21.60
2019-01-31T22:49:13.845Z,21.27
2019-01-31T22:51:43.263Z,20.55
2019-01-31T22:54:12.717Z,20.82
2019-01-31T22:56:42.174Z,22.48
2019-01-31T22:59:11.643Z,22.13
2019-01-31T23:01:47.091Z,19.05
2019-01-31T23:04:16.631Z,21.25
2019-01-31T23:06:46.086Z,19.85
2019-01-31T23:09:15.626Z,20.37
2019-01-31T23:11:45.043Z,21.30
2019-01-31T23:14:14.474Z,20.30
2019-01-31T23:16:43.893Z,20.25
2019-01-31T23:19:13.348Z,20.12
2019-01-31T23:21:42.754Z,20.95
2019-01-31T23:24:12.204Z,21.35
2019-01-31T23:26:41.625Z,20.65
2019-01-31T23:29:11.082Z,19.30
2019-01-31T23:31:40.550Z,19.57
2019-01-31T23:34:09.994Z,19.37
2019-01-31T23:36:39.568Z,19.85
2019-01-31T23:39:11.303Z,19.82
2019-01-31T23:41:40.757Z,19.80
2019-01-31T23:44:10.650Z,18.90
2019-01-31T23:46:40.083Z,19.80
2019-01-31T23:49:09.515Z,18.55
2019-01-31T23:51:38.935Z,19.35
2019-01-31T23:54:08.360Z,20.12
2019-01-31T23:56:37.799Z,19.80
2019-01-31T23:59:07.227Z,19.00
